Terminal Aerodrome Forecast
Issued by NWS

Home | Current Version | Previous Version | Text Only | Print | Product List | Glossary On
Versions: 1 2 3 4 5 6 7 8 9 10 11 12 13 14 15 16
000
FTUS43 KIND 021400 AAA
TAFLAF
TAF AMD
KLAF 021446Z 0215/0312 18008KT P6SM SCT012 BKN100
     FM022200 16008KT P6SM VCSH BKN040 OVC080
     FM030600 17012KT 5SM -SHRA SCT025 OVC040
      TEMPO 0306/0310 2SM TSRA BKN025 OVC040CB=

USA.gov is the U.S. government's official web portal to all federal, state and local government web resources and services.